Archival Weather

Norman Y Mineta San Jose Intl

San Jose, California (KSJC)

Report from: Tuesday, February 13, 2024 11:53 PM PST
Current time: Friday, June 21, 2024 12:11 AM PDT

Current weather – Weather history – Daily summaries
Weather forecast

Temperature8.3°C (46.9°F)
Wind chill7.2°C (44.9°F)
Dew point5.6°C (42.1°F)
Winds 4 kts (2.1 m/s, 4.6 mph) East-Southeast (120°)
Visibility10 mi. (16.1 km)
Clouds Few clouds 1,200 ft. (366 m)
Ceiling: Broken clouds 10,000 ft. (3,048 m)
Altimeter30.05 in.Hg (1018 mB)
Relative humidity83 %
Density altitude-819 ft. (-250 m)
Sea-level pressure101.8 kPa (1018 mB, 30.05 in.Hg)
Max temp last 24 hours17.8°C (64.0°F)
Min temp last 24 hours7.8°C (46.0°F)
Remarks Automated weather observing station with precipitation discriminator
Flight conditions Visual Meteorological Conditions
Raw dataKSJC 140753Z 12004KT 10SM FEW012 BKN100 08/06 A3005 RMK AO2 SLP176 T00830056 401780078
An error has occurred. This application may no longer respond until reloaded. Reload 🗙